Ross River, Canada
Current Conditions -  °F | °C
As of 10:00 PM on Tuesday 21 Oct 2014 (Local Time) from CYXY Reporting Station
Overcast Overcast  
Wind Chill: 36°   Ceiling: 3500
Heat Index: 36°   Visibility: 15mi
Dew Point: 30°   Wind: 0mph
Humidity: 81%   Direction: NA
Pressure: 29.28"   Gusts: NA
Location:  61.98°N, 132.45°W
Report Text: CYXY 220500Z 00000KT 15SM OVC035 02/M01 A2928 RMK SC8 SLP949
Loading
Personal Weather Stations






























Interactive Weather Map
Tropical Storm Tracking
New forecast layout! Learn more

10-Day Weather Forecast

Advertisements
Track Severe Weather on mobile